createdAt,value
2023-04-28T00:01:38.538Z,1.36
2023-04-28T00:04:05.577Z,1.40
2023-04-28T00:06:32.375Z,1.34
2023-04-28T00:08:59.063Z,1.35
2023-04-28T00:11:25.857Z,1.35
2023-04-28T00:13:52.552Z,1.33
2023-04-28T00:16:19.358Z,1.25
2023-04-28T00:18:46.173Z,1.09
2023-04-28T00:21:12.899Z,1.18
2023-04-28T00:23:39.585Z,1.22
2023-04-28T00:26:06.247Z,1.25
2023-04-28T00:28:34.749Z,1.31
2023-04-28T00:31:02.353Z,1.18
2023-04-28T00:33:29.051Z,1.11
2023-04-28T00:36:00.741Z,1.04
2023-04-28T00:38:27.610Z,1.03
2023-04-28T00:40:54.360Z,1.06
2023-04-28T00:43:21.151Z,1.10
2023-04-28T00:45:52.171Z,1.06
2023-04-28T00:48:19.397Z,1.16
2023-04-28T00:50:47.852Z,1.18
2023-04-28T00:53:14.786Z,1.10
2023-04-28T00:55:41.538Z,1.10
2023-04-28T00:58:09.545Z,1.18
2023-04-28T01:00:36.361Z,1.22
2023-04-28T01:03:03.611Z,1.28
2023-04-28T01:05:31.857Z,1.27
2023-04-28T01:07:59.938Z,1.16
2023-04-28T01:10:26.817Z,1.09
2023-04-28T01:12:53.719Z,1.13
2023-04-28T01:15:21.396Z,1.17
2023-04-28T01:17:48.367Z,1.14
2023-04-28T01:20:16.137Z,1.06
2023-04-28T01:22:43.138Z,0.88
2023-04-28T01:25:09.853Z,0.76
2023-04-28T01:27:36.571Z,0.79
2023-04-28T01:30:03.481Z,0.90
2023-04-28T01:32:30.507Z,0.94
2023-04-28T01:34:57.193Z,1.06
2023-04-28T01:37:24.078Z,1.10
2023-04-28T01:39:50.980Z,1.09
2023-04-28T01:42:17.633Z,0.97
2023-04-28T01:44:44.339Z,0.99
2023-04-28T01:47:11.128Z,0.98
2023-04-28T01:49:37.759Z,1.02
2023-04-28T01:52:04.785Z,1.09
2023-04-28T01:54:31.477Z,1.16
2023-04-28T01:56:58.140Z,1.03
2023-04-28T01:59:24.989Z,1.02
2023-04-28T02:01:51.765Z,1.10
2023-04-28T02:04:18.707Z,1.19
2023-04-28T02:06:45.779Z,1.27
2023-04-28T02:09:12.479Z,1.32
2023-04-28T02:11:39.187Z,1.35
2023-04-28T02:14:05.842Z,1.36
2023-04-28T02:16:33.913Z,1.27
2023-04-28T02:19:00.717Z,1.21
2023-04-28T02:21:27.967Z,1.21
2023-04-28T02:23:54.823Z,1.24
2023-04-28T02:26:21.542Z,1.26
2023-04-28T02:28:49.176Z,1.25
2023-04-28T02:31:16.307Z,1.24
2023-04-28T02:33:43.097Z,1.22
2023-04-28T02:36:10.646Z,1.16
2023-04-28T02:38:37.335Z,1.12
2023-04-28T02:41:05.593Z,1.19
2023-04-28T02:43:33.190Z,1.29
2023-04-28T02:46:00.168Z,1.39
2023-04-28T02:48:27.243Z,1.41
2023-04-28T02:50:53.988Z,1.46
2023-04-28T02:53:21.410Z,1.23
2023-04-28T02:55:48.320Z,1.32
2023-04-28T02:58:15.108Z,1.35
2023-04-28T03:00:41.964Z,1.37
2023-04-28T03:03:08.869Z,1.35
2023-04-28T03:05:35.708Z,1.36
2023-04-28T03:08:02.492Z,1.27
2023-04-28T03:10:29.189Z,1.20
2023-04-28T03:12:56.151Z,1.17
2023-04-28T03:15:22.791Z,1.16
2023-04-28T03:17:50.214Z,1.18
2023-04-28T03:20:17.013Z,1.13
2023-04-28T03:22:43.780Z,1.11
2023-04-28T03:25:10.582Z,1.13
2023-04-28T03:27:37.333Z,1.18
2023-04-28T03:30:04.355Z,1.16
2023-04-28T03:32:31.142Z,1.10
2023-04-28T03:34:57.927Z,1.03
2023-04-28T03:37:24.711Z,0.90
2023-04-28T03:39:51.462Z,0.91
2023-04-28T03:42:18.196Z,0.96
2023-04-28T03:44:47.930Z,0.99
2023-04-28T03:47:14.680Z,1.06
2023-04-28T03:49:41.390Z,1.11
2023-04-28T03:52:08.088Z,1.11
2023-04-28T03:54:36.449Z,1.10
2023-04-28T03:57:04.638Z,1.10
2023-04-28T03:59:31.658Z,1.08
2023-04-28T04:01:58.589Z,0.99
2023-04-28T04:04:26.456Z,0.85
2023-04-28T04:06:53.640Z,0.94
2023-04-28T04:09:20.482Z,0.83
2023-04-28T04:11:47.459Z,0.87
2023-04-28T04:14:14.277Z,0.87
2023-04-28T04:16:41.439Z,0.95
2023-04-28T04:19:08.129Z,1.08
2023-04-28T04:21:34.821Z,1.08
2023-04-28T04:24:01.709Z,1.18
2023-04-28T04:26:28.484Z,1.18
2023-04-28T04:28:55.148Z,1.07
2023-04-28T04:31:22.776Z,1.14
2023-04-28T04:33:49.701Z,1.15
2023-04-28T04:36:16.422Z,1.19
2023-04-28T04:38:43.132Z,1.25
2023-04-28T04:41:09.885Z,1.33
2023-04-28T04:43:36.772Z,1.33
2023-04-28T04:46:04.223Z,1.36
2023-04-28T04:48:31.121Z,1.37
2023-04-28T04:50:57.779Z,1.39
2023-04-28T04:53:24.625Z,1.44
2023-04-28T04:55:51.443Z,1.54
2023-04-28T04:58:18.356Z,1.59
2023-04-28T05:00:45.172Z,1.78
2023-04-28T05:03:12.161Z,1.88
2023-04-28T05:05:39.006Z,2.07
2023-04-28T05:08:05.996Z,2.26
2023-04-28T05:10:33.124Z,2.46
2023-04-28T05:12:59.845Z,2.67
2023-04-28T05:15:26.519Z,2.92
2023-04-28T05:17:53.219Z,3.15
2023-04-28T05:20:20.191Z,3.34
2023-04-28T05:22:47.012Z,3.60
2023-04-28T05:25:13.693Z,4.09
2023-04-28T05:27:41.119Z,4.29
2023-04-28T05:30:08.799Z,4.51
2023-04-28T05:32:36.746Z,4.83
2023-04-28T05:35:03.687Z,5.17
2023-04-28T05:37:30.608Z,5.35
2023-04-28T05:39:57.356Z,5.47
2023-04-28T05:42:31.404Z,5.53
2023-04-28T05:44:58.075Z,5.92
2023-04-28T05:47:24.792Z,6.27
2023-04-28T05:49:51.492Z,6.45
2023-04-28T05:52:18.239Z,6.68
2023-04-28T05:54:44.868Z,7.11
2023-04-28T05:57:11.697Z,7.25
2023-04-28T05:59:38.532Z,7.55
2023-04-28T06:02:05.303Z,7.62
2023-04-28T06:04:32.407Z,7.54
2023-04-28T06:06:59.521Z,7.64
2023-04-28T06:09:26.268Z,7.73
2023-04-28T06:11:54.530Z,7.82
2023-04-28T06:14:23.057Z,7.69
2023-04-28T06:16:50.950Z,7.78
2023-04-28T06:19:19.006Z,7.68
2023-04-28T06:21:46.463Z,7.73
2023-04-28T06:24:13.230Z,8.08
2023-04-28T06:26:40.283Z,7.87
2023-04-28T06:29:07.046Z,7.67
2023-04-28T06:31:33.791Z,7.97
2023-04-28T06:34:00.845Z,7.74
2023-04-28T06:36:28.281Z,7.86
2023-04-28T06:38:55.054Z,8.35
2023-04-28T06:41:22.056Z,9.50
2023-04-28T06:43:48.971Z,10.58
2023-04-28T06:46:15.924Z,11.27
2023-04-28T06:48:42.878Z,12.47
2023-04-28T06:51:09.493Z,11.42
2023-04-28T06:53:36.191Z,11.57
2023-04-28T06:56:03.225Z,12.81
2023-04-28T06:58:30.007Z,12.37
2023-04-28T07:00:57.141Z,11.96
2023-04-28T07:03:24.407Z,11.26
2023-04-28T07:05:51.210Z,10.46
2023-04-28T07:08:17.980Z,10.54
2023-04-28T07:10:44.722Z,10.37
2023-04-28T07:13:11.705Z,10.17
2023-04-28T07:15:39.749Z,9.94
2023-04-28T07:18:06.570Z,9.98
2023-04-28T07:20:33.375Z,9.85
2023-04-28T07:23:00.174Z,9.82
2023-04-28T07:25:33.722Z,9.85
2023-04-28T07:28:03.861Z,10.02
2023-04-28T07:30:30.917Z,10.11
2023-04-28T07:32:58.475Z,10.23
2023-04-28T07:35:25.677Z,10.37
2023-04-28T07:37:53.098Z,10.41
2023-04-28T07:40:20.637Z,10.45
2023-04-28T07:42:48.041Z,10.50
2023-04-28T07:45:16.287Z,10.79
2023-04-28T07:47:43.349Z,11.08
2023-04-28T07:50:12.176Z,11.19
2023-04-28T07:52:39.684Z,11.38
2023-04-28T07:55:07.128Z,11.30
2023-04-28T07:57:35.030Z,11.39
2023-04-28T08:00:02.761Z,11.67
2023-04-28T08:02:30.143Z,11.78
2023-04-28T08:04:57.410Z,11.85
2023-04-28T08:07:27.321Z,12.10
2023-04-28T08:09:55.293Z,12.30
2023-04-28T08:12:22.116Z,12.16
2023-04-28T08:14:49.096Z,12.33
2023-04-28T08:17:27.055Z,12.07
2023-04-28T08:19:53.926Z,12.50
2023-04-28T08:22:20.976Z,12.40
2023-04-28T08:24:47.808Z,12.26
2023-04-28T08:27:15.033Z,12.32
2023-04-28T08:29:42.250Z,12.56
2023-04-28T08:32:10.093Z,12.80
2023-04-28T08:34:36.878Z,12.59
2023-04-28T08:37:04.418Z,12.51
2023-04-28T08:39:31.891Z,12.61
2023-04-28T08:41:58.711Z,12.58
2023-04-28T08:44:25.701Z,12.74
2023-04-28T08:46:56.602Z,12.60
2023-04-28T08:49:28.268Z,12.94
2023-04-28T08:52:00.550Z,12.93
2023-04-28T08:54:32.784Z,12.92
2023-04-28T08:57:01.247Z,12.88
2023-04-28T08:59:28.209Z,12.71
2023-04-28T09:01:55.166Z,13.20
2023-04-28T09:04:22.469Z,13.50
2023-04-28T09:06:49.468Z,13.64
2023-04-28T09:09:32.597Z,13.90
2023-04-28T09:12:03.018Z,13.61
2023-04-28T09:14:36.855Z,13.76
2023-04-28T09:17:10.332Z,14.02
2023-04-28T09:19:43.075Z,13.68
2023-04-28T09:24:47.160Z,14.01
2023-04-28T09:27:15.575Z,14.34
2023-04-28T09:29:54.127Z,14.41
2023-04-28T09:32:23.443Z,14.01
2023-04-28T09:34:52.405Z,14.56
2023-04-28T09:37:32.084Z,14.47
2023-04-28T09:40:10.908Z,14.07
2023-04-28T09:42:42.552Z,14.25
2023-04-28T09:45:09.734Z,14.40
2023-04-28T09:47:39.484Z,14.34
2023-04-28T09:50:11.572Z,14.57
2023-04-28T09:52:39.454Z,15.07
2023-04-28T09:55:11.110Z,14.69
2023-04-28T09:57:39.951Z,15.00
2023-04-28T10:00:09.230Z,14.50
2023-04-28T10:05:11.121Z,14.36
2023-04-28T10:07:39.637Z,14.62
2023-04-28T10:10:07.872Z,14.61
2023-04-28T10:12:38.616Z,14.23
2023-04-28T10:15:07.154Z,14.33
2023-04-28T10:17:35.779Z,14.45
2023-04-28T10:20:06.068Z,14.05
2023-04-28T10:22:35.891Z,14.28
2023-04-28T10:25:15.625Z,14.55
2023-04-28T10:27:44.003Z,14.51
2023-04-28T10:33:14.251Z,14.68
2023-04-28T10:35:45.945Z,14.57
2023-04-28T10:38:13.895Z,14.29
2023-04-28T10:40:48.527Z,14.49
2023-04-28T10:43:25.703Z,14.68
2023-04-28T10:45:55.986Z,14.56
2023-04-28T10:48:27.883Z,14.69
2023-04-28T10:51:04.216Z,14.73
2023-04-28T10:53:47.424Z,14.97
2023-04-28T10:56:22.287Z,15.00
2023-04-28T10:58:50.897Z,14.92
2023-04-28T11:01:32.236Z,14.82
2023-04-28T11:04:15.905Z,14.80
2023-04-28T11:06:45.847Z,14.82
2023-04-28T11:09:12.576Z,14.60
2023-04-28T11:11:40.500Z,15.10
2023-04-28T11:14:19.493Z,15.53
2023-04-28T11:17:07.174Z,15.66
2023-04-28T11:19:46.321Z,15.79
2023-04-28T11:22:17.382Z,15.60
2023-04-28T11:25:16.677Z,15.44
2023-04-28T11:27:43.630Z,15.07
2023-04-28T11:30:22.367Z,15.11
2023-04-28T11:32:50.267Z,14.96
2023-04-28T11:35:17.905Z,14.73
2023-04-28T11:37:47.850Z,15.11
2023-04-28T11:40:15.478Z,15.04
2023-04-28T11:42:50.991Z,14.96
2023-04-28T11:45:21.820Z,15.06
2023-04-28T11:47:51.227Z,15.33
2023-04-28T11:50:37.854Z,15.52
2023-04-28T11:53:05.583Z,15.42
2023-04-28T11:55:33.093Z,15.02
2023-04-28T11:58:28.040Z,15.23
2023-04-28T12:01:13.539Z,15.20
2023-04-28T12:03:49.019Z,15.56
2023-04-28T12:09:21.446Z,15.96
2023-04-28T12:12:06.001Z,15.85
2023-04-28T12:14:53.645Z,16.21
2023-04-28T12:17:28.697Z,16.20
2023-04-28T12:19:56.874Z,16.24
2023-04-28T12:22:24.849Z,16.05
2023-04-28T12:25:04.765Z,15.83
2023-04-28T12:27:32.138Z,15.84
2023-04-28T12:29:58.927Z,15.65
2023-04-28T12:32:45.353Z,15.44
2023-04-28T12:35:12.254Z,15.34
2023-04-28T12:37:39.977Z,15.30
2023-04-28T12:40:07.525Z,15.26
2023-04-28T12:42:34.657Z,15.47
2023-04-28T12:45:01.473Z,15.78
2023-04-28T12:47:28.506Z,15.57
2023-04-28T12:49:55.286Z,15.69
2023-04-28T12:52:22.691Z,15.51
2023-04-28T12:54:49.544Z,15.09
2023-04-28T12:57:18.717Z,15.27
2023-04-28T12:59:47.273Z,15.65
2023-04-28T13:02:15.331Z,15.42
2023-04-28T13:04:43.226Z,15.49
2023-04-28T13:07:10.044Z,15.32
2023-04-28T13:09:38.553Z,15.18
2023-04-28T13:12:05.606Z,15.15
2023-04-28T13:14:32.788Z,15.31
2023-04-28T13:17:01.647Z,15.14
2023-04-28T13:19:29.684Z,15.18
2023-04-28T13:21:56.420Z,15.37
2023-04-28T13:24:23.240Z,15.31
2023-04-28T13:26:50.077Z,14.98
2023-04-28T13:29:17.031Z,15.07
2023-04-28T13:31:43.834Z,15.19
2023-04-28T13:34:16.004Z,15.24
2023-04-28T13:36:44.101Z,14.90
2023-04-28T13:39:13.577Z,14.74
2023-04-28T13:41:40.780Z,14.82
2023-04-28T13:44:07.646Z,14.89
2023-04-28T13:46:34.533Z,14.82
2023-04-28T13:49:01.794Z,14.69
2023-04-28T13:51:28.831Z,14.70
2023-04-28T13:53:55.826Z,14.80
2023-04-28T13:56:22.547Z,14.81
2023-04-28T13:58:49.280Z,14.65
2023-04-28T14:01:16.120Z,14.68
2023-04-28T14:03:44.345Z,14.74
2023-04-28T14:06:11.362Z,14.77
2023-04-28T14:08:38.357Z,14.74
2023-04-28T14:11:05.185Z,14.74
2023-04-28T14:13:31.959Z,14.77
2023-04-28T14:15:59.820Z,14.65
2023-04-28T14:18:27.529Z,14.73
2023-04-28T14:20:55.046Z,14.66
2023-04-28T14:23:22.768Z,14.65
2023-04-28T14:25:50.349Z,14.37
2023-04-28T14:28:17.510Z,14.57
2023-04-28T14:30:44.409Z,14.67
2023-04-28T14:33:11.419Z,14.73
2023-04-28T14:35:38.233Z,14.63
2023-04-28T14:38:04.875Z,14.55
2023-04-28T14:40:32.070Z,14.62
2023-04-28T14:42:58.825Z,14.75
2023-04-28T14:45:25.848Z,14.70
2023-04-28T14:47:53.050Z,14.64
2023-04-28T14:50:19.793Z,14.51
2023-04-28T14:52:46.491Z,14.49
2023-04-28T14:55:13.723Z,14.23
2023-04-28T14:57:40.581Z,14.07
2023-04-28T15:00:08.122Z,13.95
2023-04-28T15:02:36.269Z,13.91
2023-04-28T15:05:03.559Z,13.76
2023-04-28T15:07:33.088Z,13.59
2023-04-28T15:10:00.092Z,13.54
2023-04-28T15:12:27.082Z,13.42
2023-04-28T15:14:54.059Z,13.20
2023-04-28T15:17:21.521Z,13.12
2023-04-28T15:19:48.315Z,13.25
2023-04-28T15:22:15.587Z,13.11
2023-04-28T15:24:42.322Z,13.14
2023-04-28T15:27:09.135Z,12.95
2023-04-28T15:29:35.837Z,13.04
2023-04-28T15:32:02.631Z,13.18
2023-04-28T15:34:29.420Z,13.09
2023-04-28T15:36:56.699Z,13.02
2023-04-28T15:39:25.100Z,13.11
2023-04-28T15:41:53.002Z,13.13
2023-04-28T15:44:19.933Z,13.04
2023-04-28T15:46:46.730Z,12.91
2023-04-28T15:49:13.848Z,12.88
2023-04-28T15:51:40.534Z,12.99
2023-04-28T15:54:07.178Z,12.90
2023-04-28T15:56:34.150Z,12.98
2023-04-28T15:59:00.788Z,13.00
2023-04-28T16:01:28.456Z,12.91
2023-04-28T16:03:55.315Z,12.94
2023-04-28T16:06:22.145Z,12.82
2023-04-28T16:08:48.896Z,12.80
2023-04-28T16:11:19.378Z,12.64
2023-04-28T16:13:46.054Z,12.69
2023-04-28T16:16:12.818Z,12.69
2023-04-28T16:18:39.638Z,12.72
2023-04-28T16:21:06.523Z,12.54
2023-04-28T16:23:33.407Z,12.48
2023-04-28T16:26:00.206Z,12.64
2023-04-28T16:28:27.120Z,12.62
2023-04-28T16:30:54.004Z,12.60
2023-04-28T16:33:20.801Z,12.45
2023-04-28T16:35:54.920Z,12.47
2023-04-28T16:38:22.162Z,12.50
2023-04-28T16:40:49.465Z,12.61
2023-04-28T16:43:16.565Z,12.46
2023-04-28T16:45:43.766Z,12.50
2023-04-28T16:48:11.013Z,12.49
2023-04-28T16:50:40.798Z,12.46
2023-04-28T16:53:08.184Z,12.43
2023-04-28T16:55:39.173Z,12.40
2023-04-28T16:58:06.393Z,12.44
2023-04-28T17:00:33.263Z,12.35
2023-04-28T17:03:00.102Z,12.31
2023-04-28T17:05:26.938Z,12.33
2023-04-28T17:07:55.114Z,12.19
2023-04-28T17:10:22.760Z,12.02
2023-04-28T17:12:49.515Z,11.87
2023-04-28T17:15:19.506Z,12.09
2023-04-28T17:17:49.858Z,12.01
2023-04-28T17:20:18.220Z,11.84
2023-04-28T17:22:45.040Z,11.77
2023-04-28T17:25:12.437Z,11.77
2023-04-28T17:27:39.449Z,11.71
2023-04-28T17:30:10.588Z,11.59
2023-04-28T17:32:38.016Z,11.44
2023-04-28T17:35:05.420Z,11.58
2023-04-28T17:37:34.196Z,11.41
2023-04-28T17:40:02.012Z,11.34
2023-04-28T17:42:31.459Z,11.35
2023-04-28T17:44:58.157Z,11.29
2023-04-28T17:47:25.016Z,11.28
2023-04-28T17:49:52.257Z,11.12
2023-04-28T17:52:19.046Z,11.17
2023-04-28T17:54:45.814Z,10.98
2023-04-28T17:57:13.221Z,10.93
2023-04-28T17:59:40.692Z,11.07
2023-04-28T18:02:11.559Z,10.93
2023-04-28T18:04:38.477Z,10.95
2023-04-28T18:07:07.798Z,10.76
2023-04-28T18:09:34.545Z,10.87
2023-04-28T18:12:03.134Z,10.85
2023-04-28T18:14:34.014Z,10.58
2023-04-28T18:17:01.112Z,10.53
2023-04-28T18:19:30.211Z,10.63
2023-04-28T18:21:57.162Z,10.41
2023-04-28T18:24:25.945Z,10.41
2023-04-28T18:26:54.083Z,10.35
2023-04-28T18:29:20.851Z,10.55
2023-04-28T18:31:47.743Z,10.49
2023-04-28T18:34:14.487Z,10.28
2023-04-28T18:36:41.205Z,10.18
2023-04-28T18:39:08.988Z,10.26
2023-04-28T18:41:36.584Z,10.28
2023-04-28T18:44:03.484Z,10.12
2023-04-28T18:46:31.088Z,9.99
2023-04-28T18:48:58.040Z,9.94
2023-04-28T18:51:24.885Z,9.98
2023-04-28T18:53:51.642Z,9.96
2023-04-28T18:56:18.466Z,9.95
2023-04-28T18:58:47.219Z,9.93
2023-04-28T19:01:15.273Z,9.90
2023-04-28T19:03:42.444Z,9.94
2023-04-28T19:06:10.810Z,9.79
2023-04-28T19:08:42.800Z,9.85
2023-04-28T19:11:09.849Z,9.84
2023-04-28T19:13:37.507Z,9.98
2023-04-28T19:16:05.259Z,9.91
2023-04-28T19:18:33.213Z,9.94
2023-04-28T19:21:01.405Z,9.91
2023-04-28T19:23:29.104Z,9.74
2023-04-28T19:25:57.025Z,9.70
2023-04-28T19:28:26.054Z,9.65
2023-04-28T19:30:56.586Z,9.70
2023-04-28T19:33:27.127Z,9.64
2023-04-28T19:35:54.822Z,9.75
2023-04-28T19:38:25.435Z,9.71
2023-04-28T19:41:01.539Z,9.72
2023-04-28T19:43:28.310Z,9.65
2023-04-28T19:45:55.102Z,9.74
2023-04-28T19:48:21.999Z,9.75
2023-04-28T19:50:48.824Z,9.68
2023-04-28T19:53:15.565Z,9.66
2023-04-28T19:55:42.304Z,9.54
2023-04-28T19:58:10.554Z,9.61
2023-04-28T20:00:37.326Z,9.75
2023-04-28T20:03:04.142Z,9.64
2023-04-28T20:05:31.381Z,9.57
2023-04-28T20:07:58.131Z,9.57
2023-04-28T20:10:25.080Z,9.60
2023-04-28T20:12:53.725Z,9.47
2023-04-28T20:15:20.772Z,9.56
2023-04-28T20:17:47.650Z,9.62
2023-04-28T20:20:14.414Z,9.61
2023-04-28T20:22:41.318Z,9.44
2023-04-28T20:25:10.505Z,9.40
2023-04-28T20:27:37.509Z,9.35
2023-04-28T20:30:04.947Z,9.30
2023-04-28T20:32:31.998Z,9.24
2023-04-28T20:34:59.011Z,9.30
2023-04-28T20:37:26.563Z,9.33
2023-04-28T20:39:53.658Z,9.34
2023-04-28T20:42:20.557Z,9.29
2023-04-28T20:44:47.219Z,9.32
2023-04-28T20:47:14.087Z,9.25
2023-04-28T20:49:41.879Z,9.25
2023-04-28T20:52:09.111Z,9.22
2023-04-28T20:54:36.485Z,9.25
2023-04-28T20:57:04.575Z,9.25
2023-04-28T20:59:32.774Z,9.15
2023-04-28T21:02:00.049Z,9.12
2023-04-28T21:04:28.606Z,9.12
2023-04-28T21:06:55.675Z,9.00
2023-04-28T21:09:25.087Z,8.95
2023-04-28T21:11:53.766Z,9.19
2023-04-28T21:14:21.746Z,9.12
2023-04-28T21:16:48.477Z,8.98
2023-04-28T21:19:15.474Z,9.07
2023-04-28T21:21:42.146Z,8.99
2023-04-28T21:24:10.208Z,8.90
2023-04-28T21:26:37.065Z,8.95
2023-04-28T21:29:03.753Z,8.90
2023-04-28T21:31:31.303Z,8.92
2023-04-28T21:33:58.303Z,8.89
2023-04-28T21:36:25.071Z,8.96
2023-04-28T21:38:51.886Z,8.81
2023-04-28T21:41:18.684Z,8.79
2023-04-28T21:43:45.319Z,8.76
2023-04-28T21:46:13.083Z,8.83
2023-04-28T21:48:39.995Z,8.81
2023-04-28T21:51:06.670Z,8.78
2023-04-28T21:53:33.583Z,8.70
2023-04-28T21:56:00.388Z,8.71
2023-04-28T21:58:27.159Z,8.65
2023-04-28T22:00:55.238Z,8.67
2023-04-28T22:03:22.412Z,8.73
2023-04-28T22:05:49.324Z,8.70
2023-04-28T22:08:17.070Z,8.69
2023-04-28T22:10:45.481Z,8.77
2023-04-28T22:13:13.031Z,8.73
2023-04-28T22:15:39.869Z,8.67
2023-04-28T22:18:08.011Z,8.72
2023-04-28T22:20:34.822Z,8.87
2023-04-28T22:23:01.532Z,8.70
2023-04-28T22:25:28.259Z,8.82
2023-04-28T22:27:54.953Z,8.88
2023-04-28T22:30:24.354Z,8.66
2023-04-28T22:32:52.466Z,8.74
2023-04-28T22:35:19.640Z,8.68
2023-04-28T22:37:46.321Z,8.65
2023-04-28T22:40:13.283Z,8.67
2023-04-28T22:42:41.824Z,8.64
2023-04-28T22:45:10.164Z,8.62
2023-04-28T22:47:43.557Z,8.83
2023-04-28T22:50:11.501Z,8.70
2023-04-28T22:52:38.620Z,8.71
2023-04-28T22:55:06.453Z,8.66
2023-04-28T22:57:33.458Z,8.73
2023-04-28T23:00:00.252Z,8.60
2023-04-28T23:02:27.101Z,8.51
2023-04-28T23:04:54.066Z,8.61
2023-04-28T23:07:20.840Z,8.58
2023-04-28T23:09:47.549Z,8.64
2023-04-28T23:12:14.266Z,8.53
2023-04-28T23:14:40.909Z,8.39
2023-04-28T23:17:07.648Z,8.32
2023-04-28T23:19:39.249Z,8.41
2023-04-28T23:22:07.710Z,8.61
2023-04-28T23:24:36.716Z,8.37
2023-04-28T23:27:03.699Z,8.51
2023-04-28T23:29:30.460Z,8.43
2023-04-28T23:31:57.259Z,8.61
2023-04-28T23:34:24.890Z,8.51
2023-04-28T23:36:51.782Z,8.23
2023-04-28T23:39:18.583Z,8.31
2023-04-28T23:41:45.326Z,8.42
2023-04-28T23:44:12.030Z,8.39
2023-04-28T23:46:38.809Z,8.26
2023-04-28T23:49:05.582Z,8.30
2023-04-28T23:51:32.404Z,8.23
2023-04-28T23:53:59.429Z,8.29
2023-04-28T23:56:26.858Z,8.19
2023-04-28T23:58:54.154Z,8.19
